Terminal Aerodrome Forecast
Issued by NWS

Home | Current Version | Previous Version | Text Only | Print | Product List | Glossary On
Versions: 1 2 3 4 5 6 7 8 9 10 11 12 13 14 15 16 17 18 19 20
000
FTUS43 KIWX 212339
TAFSBN
TAF
KSBN 212339Z 2200/2224 19006KT P6SM SCT040
     FM220400 19004KT 5SM BR SCT150
     FM220700 VRB03KT 1SM BR BKN008
     FM220900 VRB03KT 3/4SM BR OVC004
     FM221600 07005KT 2SM BR BKN008
     FM221800 05008KT 6SM BR BKN020=

USA.gov is the U.S. government's official web portal to all federal, state and local government web resources and services.